createdAt,value
2022-12-15T00:02:15.549Z,19.70
2022-12-15T00:05:00.669Z,20.88
2022-12-15T00:07:45.869Z,23.90
2022-12-15T00:10:31.134Z,19.02
2022-12-15T00:13:16.222Z,18.02
2022-12-15T00:16:01.134Z,21.05
2022-12-15T00:18:46.435Z,22.65
2022-12-15T00:21:31.917Z,17.45
2022-12-15T00:24:17.661Z,23.55
2022-12-15T00:27:02.865Z,20.00
2022-12-15T00:29:49.469Z,25.38
2022-12-15T00:32:34.360Z,21.75
2022-12-15T00:35:19.421Z,19.40
2022-12-15T00:38:04.492Z,20.83
2022-12-15T00:40:31.070Z,20.88
2022-12-15T00:42:57.550Z,20.83
2022-12-15T00:45:43.941Z,20.98
2022-12-15T00:48:10.539Z,19.27
2022-12-15T00:50:52.488Z,20.30
2022-12-15T00:53:41.955Z,20.83
2022-12-15T00:56:27.923Z,21.10
2022-12-15T00:59:13.925Z,19.10
2022-12-15T01:01:59.239Z,19.63
2022-12-15T01:04:44.304Z,18.65
2022-12-15T01:07:29.186Z,18.30
2022-12-15T01:10:14.702Z,20.60
2022-12-15T01:12:59.900Z,19.73
2022-12-15T01:15:45.194Z,22.48
2022-12-15T01:18:30.898Z,19.33
2022-12-15T01:20:59.661Z,22.05
2022-12-15T01:23:26.291Z,21.35
2022-12-15T01:25:54.407Z,21.92
2022-12-15T01:28:22.058Z,21.38
2022-12-15T01:30:49.581Z,21.48
2022-12-15T01:33:17.716Z,20.42
2022-12-15T01:35:44.453Z,24.90
2022-12-15T01:38:11.248Z,26.70
2022-12-15T01:40:47.190Z,20.42
2022-12-15T01:43:19.763Z,23.75
2022-12-15T01:46:00.706Z,19.48
2022-12-15T01:48:35.787Z,22.15
2022-12-15T01:51:15.206Z,20.77
2022-12-15T01:53:50.654Z,21.63
2022-12-15T01:56:18.904Z,24.63
2022-12-15T01:58:50.308Z,28.92
2022-12-15T02:01:17.117Z,24.40
2022-12-15T02:03:44.862Z,22.88
2022-12-15T02:06:13.092Z,26.23
2022-12-15T02:08:43.188Z,22.60
2022-12-15T02:11:40.715Z,24.83
2022-12-15T02:14:10.052Z,25.15
2022-12-15T02:17:01.414Z,26.45
2022-12-15T02:19:46.553Z,26.83
2022-12-15T02:22:42.255Z,24.55
2022-12-15T02:25:46.665Z,28.67
2022-12-15T02:28:46.492Z,25.58
2022-12-15T02:31:41.584Z,27.80
2022-12-15T02:34:17.444Z,21.83
2022-12-15T02:36:49.278Z,25.40
2022-12-15T02:39:18.411Z,24.98
2022-12-15T02:41:46.950Z,22.80
2022-12-15T02:44:29.561Z,24.15
2022-12-15T02:47:05.084Z,26.85
2022-12-15T02:49:46.010Z,27.90
2022-12-15T02:52:53.917Z,26.80
2022-12-15T02:55:43.826Z,27.17
2022-12-15T02:58:20.757Z,30.33
2022-12-15T03:00:55.522Z,28.88
2022-12-15T03:03:23.254Z,31.88
2022-12-15T03:05:55.062Z,28.55
2022-12-15T03:08:22.278Z,28.17
2022-12-15T03:10:52.594Z,27.17
2022-12-15T03:13:22.498Z,27.23
2022-12-15T03:15:49.652Z,29.52
2022-12-15T03:18:16.327Z,23.70
2022-12-15T03:20:42.764Z,22.42
2022-12-15T03:23:09.208Z,25.13
2022-12-15T03:25:35.691Z,20.73
2022-12-15T03:28:02.439Z,23.83
2022-12-15T03:30:29.021Z,23.55
2022-12-15T03:32:55.622Z,24.05
2022-12-15T03:35:22.165Z,23.63
2022-12-15T03:37:48.638Z,23.55
2022-12-15T03:40:16.290Z,26.17
2022-12-15T03:42:51.039Z,22.42
2022-12-15T03:45:23.654Z,23.50
2022-12-15T03:47:51.122Z,23.30
2022-12-15T03:50:20.589Z,22.55
2022-12-15T03:52:55.645Z,25.55
2022-12-15T03:55:23.391Z,24.88
2022-12-15T03:57:51.079Z,26.00
2022-12-15T04:00:19.690Z,25.70
2022-12-15T04:02:47.828Z,24.90
2022-12-15T04:05:26.727Z,27.58
2022-12-15T04:07:54.632Z,26.70
2022-12-15T04:10:22.196Z,28.98
2022-12-15T04:12:48.706Z,27.55
2022-12-15T04:15:15.734Z,27.60
2022-12-15T04:17:42.818Z,29.73
2022-12-15T04:20:09.871Z,27.02
2022-12-15T04:22:45.210Z,26.50
2022-12-15T04:28:17.361Z,33.58
2022-12-15T04:31:19.375Z,27.52
2022-12-15T04:34:08.466Z,30.08
2022-12-15T04:36:56.014Z,31.10
2022-12-15T04:39:41.733Z,32.20
2022-12-15T04:42:27.215Z,28.40
2022-12-15T04:45:20.749Z,31.30
2022-12-15T04:48:08.361Z,29.15
2022-12-15T04:50:53.674Z,31.85
2022-12-15T04:53:40.509Z,32.78
2022-12-15T04:56:33.424Z,30.15
2022-12-15T04:59:19.855Z,32.33
2022-12-15T05:02:05.266Z,30.83
2022-12-15T05:04:50.821Z,31.02
2022-12-15T05:07:36.405Z,26.30
2022-12-15T05:10:22.663Z,33.72
2022-12-15T05:13:07.892Z,27.92
2022-12-15T05:15:53.402Z,29.38
2022-12-15T05:18:39.370Z,28.17
2022-12-15T05:21:25.257Z,34.58
2022-12-15T05:24:10.209Z,29.80
2022-12-15T05:26:55.784Z,26.80
2022-12-15T05:29:41.278Z,27.65
2022-12-15T05:32:08.524Z,32.42
2022-12-15T05:34:36.808Z,26.52
2022-12-15T05:37:05.452Z,27.52
2022-12-15T05:39:32.030Z,27.80
2022-12-15T05:41:58.649Z,28.90
2022-12-15T05:44:26.016Z,25.50
2022-12-15T05:46:53.381Z,29.58
2022-12-15T05:49:20.709Z,28.63
2022-12-15T05:51:47.857Z,28.02
2022-12-15T05:54:19.137Z,30.25
2022-12-15T05:56:46.461Z,29.10
2022-12-15T05:59:13.395Z,27.52
2022-12-15T06:01:40.303Z,32.25
2022-12-15T06:04:07.620Z,31.77
2022-12-15T06:06:34.286Z,36.28
2022-12-15T06:09:00.723Z,31.92
2022-12-15T06:11:27.620Z,32.28
2022-12-15T06:13:55.155Z,34.08
2022-12-15T06:16:24.110Z,35.72
2022-12-15T06:18:54.368Z,38.08
2022-12-15T06:21:23.928Z,35.53
2022-12-15T06:23:50.643Z,33.80
2022-12-15T06:26:36.644Z,37.13
2022-12-15T06:29:06.058Z,34.13
2022-12-15T06:31:32.820Z,46.80
2022-12-15T06:34:02.373Z,38.22
2022-12-15T06:36:30.808Z,37.53
2022-12-15T06:39:02.489Z,40.33
2022-12-15T06:41:30.321Z,41.25
2022-12-15T06:43:57.815Z,36.72
2022-12-15T06:46:26.232Z,42.95
2022-12-15T06:48:53.698Z,45.55
2022-12-15T06:51:20.667Z,38.88
2022-12-15T06:53:54.263Z,45.03
2022-12-15T06:56:37.857Z,41.42
2022-12-15T06:59:06.489Z,42.83
2022-12-15T07:01:34.932Z,45.00
2022-12-15T07:04:04.565Z,42.80
2022-12-15T07:06:38.742Z,45.42
2022-12-15T07:09:08.519Z,42.85
2022-12-15T07:11:35.778Z,42.72
2022-12-15T07:14:02.454Z,41.05
2022-12-15T07:16:29.107Z,44.03
2022-12-15T07:18:55.698Z,40.42
2022-12-15T07:21:22.278Z,45.15
2022-12-15T07:23:57.272Z,40.88
2022-12-15T07:26:24.540Z,46.65
2022-12-15T07:28:52.993Z,42.92
2022-12-15T07:31:19.557Z,42.33
2022-12-15T07:33:48.537Z,43.28
2022-12-15T07:36:15.723Z,40.97
2022-12-15T07:38:42.220Z,39.63
2022-12-15T07:41:10.004Z,38.95
2022-12-15T07:43:37.600Z,35.53
2022-12-15T07:46:05.393Z,37.22
2022-12-15T07:48:32.823Z,36.78
2022-12-15T07:51:08.489Z,36.63
2022-12-15T07:53:37.996Z,35.83
2022-12-15T07:56:08.623Z,34.35
2022-12-15T07:58:36.972Z,35.90
2022-12-15T08:01:08.953Z,35.45
2022-12-15T08:03:38.043Z,32.75
2022-12-15T08:06:10.364Z,37.80
2022-12-15T08:08:37.470Z,30.73
2022-12-15T08:11:13.562Z,34.58
2022-12-15T08:18:57.082Z,33.58
2022-12-15T08:21:23.690Z,37.33
2022-12-15T08:23:50.642Z,35.78
2022-12-15T08:26:18.713Z,38.03
2022-12-15T08:28:46.113Z,35.65
2022-12-15T08:31:18.571Z,36.67
2022-12-15T08:33:46.402Z,36.25
2022-12-15T08:36:15.847Z,33.47
2022-12-15T08:38:43.879Z,33.53
2022-12-15T08:41:11.830Z,38.35
2022-12-15T08:43:44.000Z,41.60
2022-12-15T08:46:14.567Z,35.00
2022-12-15T08:48:41.328Z,33.05
2022-12-15T08:51:08.282Z,31.50
2022-12-15T08:53:34.820Z,33.28
2022-12-15T08:56:06.433Z,36.33
2022-12-15T08:58:33.500Z,36.90
2022-12-15T09:01:15.979Z,39.22
2022-12-15T09:03:46.657Z,32.22
2022-12-15T09:06:16.405Z,35.35
2022-12-15T09:08:43.551Z,35.65
2022-12-15T09:11:15.225Z,32.45
2022-12-15T09:13:41.770Z,42.00
2022-12-15T09:16:16.131Z,40.38
2022-12-15T09:18:44.853Z,37.10
2022-12-15T09:21:13.562Z,38.97
2022-12-15T09:23:40.988Z,40.17
2022-12-15T09:26:14.243Z,44.92
2022-12-15T09:28:41.482Z,39.95
2022-12-15T09:31:16.629Z,41.00
2022-12-15T09:33:44.245Z,41.72
2022-12-15T09:36:13.093Z,44.42
2022-12-15T09:38:41.153Z,37.17
2022-12-15T09:41:13.783Z,45.92
2022-12-15T09:44:07.260Z,44.08
2022-12-15T09:46:34.697Z,48.10
2022-12-15T09:49:05.775Z,49.63
2022-12-15T09:51:39.132Z,45.08
2022-12-15T09:54:06.929Z,43.88
2022-12-15T09:56:43.157Z,49.88
2022-12-15T09:59:28.343Z,47.13
2022-12-15T10:02:32.719Z,47.60
2022-12-15T10:05:22.674Z,48.45
2022-12-15T10:07:51.403Z,46.63
2022-12-15T10:10:32.824Z,47.10
2022-12-15T10:13:07.563Z,52.85
2022-12-15T10:16:06.060Z,50.72
2022-12-15T10:18:47.211Z,49.38
2022-12-15T10:21:16.953Z,47.00
2022-12-15T10:23:43.670Z,48.92
2022-12-15T10:26:24.030Z,52.05
2022-12-15T10:28:59.268Z,48.88
2022-12-15T10:31:54.117Z,51.50
2022-12-15T10:36:53.653Z,46.63
2022-12-15T10:39:21.086Z,51.65
2022-12-15T10:42:23.859Z,49.63
2022-12-15T10:44:54.047Z,48.97
2022-12-15T10:47:24.369Z,52.90
2022-12-15T10:49:52.319Z,54.90
2022-12-15T10:52:32.480Z,51.13
2022-12-15T10:54:58.997Z,53.25
2022-12-15T10:57:31.969Z,52.33
2022-12-15T11:00:27.969Z,50.55
2022-12-15T11:02:55.222Z,51.95
2022-12-15T11:05:22.513Z,50.70
2022-12-15T11:07:52.175Z,50.88
2022-12-15T11:10:27.926Z,53.63
2022-12-15T11:13:00.811Z,52.60
2022-12-15T11:15:39.272Z,51.83
2022-12-15T11:18:13.954Z,55.13
2022-12-15T11:20:48.520Z,53.60
2022-12-15T11:23:27.535Z,52.35
2022-12-15T11:26:07.160Z,53.55
2022-12-15T11:28:50.647Z,53.33
2022-12-15T11:31:27.439Z,51.90
2022-12-15T11:33:56.018Z,49.10
2022-12-15T11:36:56.807Z,50.42
2022-12-15T11:39:41.702Z,53.05
2022-12-15T11:42:31.744Z,55.75
2022-12-15T11:45:19.118Z,55.30
2022-12-15T11:47:53.233Z,60.05
2022-12-15T11:50:50.971Z,56.90
2022-12-15T11:53:36.672Z,55.55
2022-12-15T11:56:24.320Z,52.45
2022-12-15T11:59:00.788Z,55.72
2022-12-15T12:01:29.920Z,56.65
2022-12-15T12:04:18.795Z,57.88
2022-12-15T12:06:58.684Z,52.10
2022-12-15T12:09:32.014Z,54.60
2022-12-15T12:12:12.743Z,57.05
2022-12-15T12:15:01.536Z,50.85
2022-12-15T12:17:42.347Z,55.28
2022-12-15T12:20:50.261Z,54.60
2022-12-15T12:23:22.114Z,55.05
2022-12-15T12:26:15.851Z,56.22
2022-12-15T12:28:58.114Z,58.60
2022-12-15T12:32:05.068Z,57.50
2022-12-15T12:35:32.209Z,56.05
2022-12-15T12:38:03.877Z,59.05
2022-12-15T12:40:41.624Z,61.28
2022-12-15T12:43:22.592Z,59.70
2022-12-15T12:45:54.690Z,61.53
2022-12-15T12:48:48.425Z,56.15
2022-12-15T12:51:33.904Z,60.92
2022-12-15T12:54:02.456Z,56.47
2022-12-15T12:56:45.431Z,60.47
2022-12-15T12:59:30.278Z,57.05
2022-12-15T13:02:29.196Z,54.95
2022-12-15T13:05:29.330Z,56.22
2022-12-15T13:08:10.831Z,56.58
2022-12-15T13:10:57.015Z,53.95
2022-12-15T13:13:31.520Z,54.58
2022-12-15T13:16:07.199Z,59.13
2022-12-15T13:19:09.443Z,56.10
2022-12-15T13:21:42.283Z,53.50
2022-12-15T13:24:33.095Z,56.45
2022-12-15T13:27:10.312Z,53.20
2022-12-15T13:29:56.307Z,54.08
2022-12-15T13:32:54.253Z,51.03
2022-12-15T13:35:31.841Z,50.60
2022-12-15T13:38:11.294Z,50.42
2022-12-15T13:40:38.044Z,54.63
2022-12-15T13:43:05.620Z,52.72
2022-12-15T13:45:38.248Z,50.17
2022-12-15T13:48:55.234Z,52.42
2022-12-15T13:51:38.279Z,51.65
2022-12-15T13:54:19.463Z,51.38
2022-12-15T13:57:03.624Z,52.05
2022-12-15T13:59:46.775Z,53.97
2022-12-15T14:02:36.489Z,49.50
2022-12-15T14:05:14.432Z,53.22
2022-12-15T14:07:49.572Z,52.95
2022-12-15T14:10:28.383Z,52.17
2022-12-15T14:12:58.193Z,47.67
2022-12-15T14:15:31.829Z,46.70
2022-12-15T14:18:01.379Z,46.00
2022-12-15T14:20:39.167Z,43.80
2022-12-15T14:23:20.094Z,48.15
2022-12-15T14:26:02.983Z,43.70
2022-12-15T14:28:33.339Z,46.47
2022-12-15T14:31:12.697Z,51.88
2022-12-15T14:33:42.114Z,51.28
2022-12-15T14:36:12.244Z,43.35
2022-12-15T14:38:48.011Z,47.42
2022-12-15T14:41:26.963Z,48.60
2022-12-15T14:44:36.196Z,45.70
2022-12-15T14:46:47.943Z,44.33
2022-12-15T14:49:24.196Z,43.85
2022-12-15T14:51:57.507Z,53.58
2022-12-15T14:54:32.780Z,39.50
2022-12-15T14:57:22.526Z,43.55
2022-12-15T14:59:51.199Z,46.72
2022-12-15T15:02:29.078Z,48.92
2022-12-15T15:05:05.092Z,45.13
2022-12-15T15:07:33.081Z,49.90
2022-12-15T15:10:01.990Z,51.72
2022-12-15T15:15:25.649Z,50.72
2022-12-15T15:17:55.232Z,51.10
2022-12-15T15:20:29.121Z,57.33
2022-12-15T15:23:08.065Z,49.60
2022-12-15T15:25:41.218Z,51.45
2022-12-15T15:28:17.366Z,52.20
2022-12-15T15:30:56.512Z,54.33
2022-12-15T15:33:25.061Z,56.47
2022-12-15T15:36:10.114Z,54.35
2022-12-15T15:38:41.687Z,54.45
2022-12-15T15:41:15.070Z,55.25
2022-12-15T15:43:41.674Z,56.53
2022-12-15T15:46:19.030Z,51.78
2022-12-15T15:48:50.575Z,52.45
2022-12-15T15:51:17.768Z,53.97
2022-12-15T15:53:44.844Z,56.55
2022-12-15T15:56:15.243Z,56.00
2022-12-15T15:58:43.665Z,53.53
2022-12-15T16:01:13.317Z,57.67
2022-12-15T16:03:41.223Z,52.67
2022-12-15T16:06:18.531Z,55.08
2022-12-15T16:08:46.520Z,57.88
2022-12-15T16:11:13.019Z,52.88
2022-12-15T16:13:39.443Z,51.55
2022-12-15T16:16:06.773Z,55.53
2022-12-15T16:18:33.833Z,58.50
2022-12-15T16:21:00.696Z,51.42
2022-12-15T16:23:29.186Z,54.17
2022-12-15T16:26:00.232Z,58.15
2022-12-15T16:28:32.723Z,54.33
2022-12-15T16:30:59.953Z,53.03
2022-12-15T16:33:27.210Z,61.40
2022-12-15T16:35:54.113Z,54.85
2022-12-15T16:38:25.670Z,54.70
2022-12-15T16:40:52.456Z,52.13
2022-12-15T16:43:22.037Z,51.33
2022-12-15T16:45:50.899Z,54.75
2022-12-15T16:48:17.944Z,51.25
2022-12-15T16:50:50.379Z,50.90
2022-12-15T16:53:31.609Z,49.65
2022-12-15T16:56:02.742Z,46.72
2022-12-15T16:58:31.177Z,51.40
2022-12-15T17:00:59.535Z,50.80
2022-12-15T17:03:28.814Z,48.45
2022-12-15T17:05:58.749Z,47.85
2022-12-15T17:08:52.988Z,50.35
2022-12-15T17:11:24.011Z,50.67
2022-12-15T17:13:52.671Z,45.83
2022-12-15T17:16:21.933Z,48.53
2022-12-15T17:18:50.160Z,49.33
2022-12-15T17:21:22.010Z,50.28
2022-12-15T17:23:52.491Z,65.97
2022-12-15T17:26:30.607Z,68.63
2022-12-15T17:29:06.801Z,57.20
2022-12-15T17:31:36.002Z,58.33
2022-12-15T17:34:39.850Z,60.00
2022-12-15T17:37:11.088Z,53.60
2022-12-15T17:39:37.602Z,51.28
2022-12-15T17:42:15.194Z,52.25
2022-12-15T17:44:42.989Z,55.65
2022-12-15T17:47:10.175Z,55.10
2022-12-15T17:49:38.824Z,47.90
2022-12-15T17:52:28.488Z,41.80
2022-12-15T17:54:57.158Z,50.50
2022-12-15T17:57:23.946Z,47.13
2022-12-15T17:59:50.383Z,47.13
2022-12-15T18:02:17.269Z,51.00
2022-12-15T18:04:44.546Z,47.35
2022-12-15T18:07:17.287Z,47.40
2022-12-15T18:09:44.244Z,52.47
2022-12-15T18:12:22.901Z,47.88
2022-12-15T18:14:50.052Z,56.92
2022-12-15T18:17:16.792Z,57.88
2022-12-15T18:19:43.202Z,18.58
2022-12-15T18:22:22.288Z,48.45
2022-12-15T18:24:50.986Z,74.55
2022-12-15T18:27:23.853Z,54.47
2022-12-15T18:29:50.587Z,49.60
2022-12-15T18:32:18.253Z,49.92
2022-12-15T18:34:45.074Z,52.88
2022-12-15T18:37:20.119Z,57.47
2022-12-15T18:39:47.131Z,52.13
2022-12-15T18:42:15.977Z,55.20
2022-12-15T18:44:48.061Z,54.67
2022-12-15T18:47:23.925Z,53.45
2022-12-15T18:49:50.875Z,55.55
2022-12-15T18:52:21.502Z,56.45
2022-12-15T18:54:50.172Z,50.28
2022-12-15T18:57:31.804Z,53.38
2022-12-15T19:00:25.908Z,50.90
2022-12-15T19:02:54.780Z,48.95
2022-12-15T19:08:09.992Z,46.95
2022-12-15T19:10:41.984Z,41.58
2022-12-15T19:13:13.722Z,45.63
2022-12-15T19:15:40.400Z,50.42
2022-12-15T19:18:48.379Z,42.85
2022-12-15T19:21:48.415Z,46.08
2022-12-15T19:24:44.600Z,45.38
2022-12-15T19:27:12.776Z,41.25
2022-12-15T19:29:40.743Z,43.03
2022-12-15T19:32:08.245Z,42.03
2022-12-15T19:34:35.614Z,41.38
2022-12-15T19:37:03.113Z,42.97
2022-12-15T19:39:32.558Z,40.40
2022-12-15T19:41:59.253Z,43.38
2022-12-15T19:44:26.206Z,42.45
2022-12-15T19:46:52.687Z,43.10
2022-12-15T19:49:19.441Z,44.20
2022-12-15T19:51:46.256Z,39.17
2022-12-15T19:54:17.862Z,39.65
2022-12-15T19:56:44.397Z,43.53
2022-12-15T19:59:22.407Z,42.53
2022-12-15T20:01:51.691Z,42.47
2022-12-15T20:04:24.021Z,39.55
2022-12-15T20:06:51.204Z,43.13
2022-12-15T20:09:18.612Z,43.10
2022-12-15T20:11:46.353Z,46.03
2022-12-15T20:14:17.677Z,42.40
2022-12-15T20:16:44.809Z,42.92
2022-12-15T20:19:11.613Z,42.22
2022-12-15T20:21:40.318Z,44.83
2022-12-15T20:24:12.107Z,44.30
2022-12-15T20:26:39.512Z,45.75
2022-12-15T20:29:21.177Z,43.78
2022-12-15T20:31:47.908Z,45.00
2022-12-15T20:34:14.398Z,37.83
2022-12-15T20:36:42.560Z,40.08
2022-12-15T20:39:29.297Z,40.22
2022-12-15T20:41:56.939Z,45.40
2022-12-15T20:44:24.383Z,48.78
2022-12-15T20:46:51.609Z,61.40
2022-12-15T20:49:20.477Z,52.90
2022-12-15T20:54:20.486Z,60.15
2022-12-15T20:56:48.902Z,56.40
2022-12-15T20:59:17.030Z,59.25
2022-12-15T21:01:44.662Z,50.85
2022-12-15T21:04:27.913Z,50.40
2022-12-15T21:06:55.471Z,63.22
2022-12-15T21:09:22.895Z,56.25
2022-12-15T21:11:51.837Z,55.42
2022-12-15T21:16:46.810Z,51.92
2022-12-15T21:19:22.165Z,49.38
2022-12-15T21:21:55.220Z,47.75
2022-12-15T21:24:26.334Z,39.55
2022-12-15T21:26:53.697Z,42.92
2022-12-15T21:29:23.930Z,43.22
2022-12-15T21:31:50.485Z,43.35
2022-12-15T21:34:17.108Z,43.70
2022-12-15T21:36:46.760Z,40.92
2022-12-15T21:39:22.430Z,39.75
2022-12-15T21:41:49.127Z,39.40
2022-12-15T21:44:18.205Z,39.28
2022-12-15T21:46:44.719Z,38.85
2022-12-15T21:49:17.368Z,39.90
2022-12-15T21:52:02.141Z,45.05
2022-12-15T21:54:34.896Z,37.55
2022-12-15T21:57:02.617Z,39.22
2022-12-15T21:59:31.788Z,39.85
2022-12-15T22:02:02.452Z,37.38
2022-12-15T22:04:33.068Z,36.88
2022-12-15T22:07:00.257Z,38.80
2022-12-15T22:09:27.066Z,38.42
2022-12-15T22:11:55.849Z,38.92
2022-12-15T22:14:28.634Z,43.00
2022-12-15T22:16:55.951Z,38.75
2022-12-15T22:19:23.188Z,41.50
2022-12-15T22:21:50.372Z,44.70
2022-12-15T22:24:16.964Z,40.95
2022-12-15T22:26:44.186Z,43.05
2022-12-15T22:29:15.698Z,48.67
2022-12-15T22:31:42.564Z,48.58
2022-12-15T22:34:19.589Z,49.08
2022-12-15T22:36:46.238Z,49.42
2022-12-15T22:39:15.107Z,45.45
2022-12-15T22:44:27.344Z,50.10
2022-12-15T22:46:57.947Z,51.13
2022-12-15T22:49:30.617Z,51.45
2022-12-15T22:51:57.039Z,46.25
2022-12-15T22:54:25.878Z,45.08
2022-12-15T22:56:58.546Z,40.55
2022-12-15T22:59:29.540Z,37.00
2022-12-15T23:01:56.749Z,38.28
2022-12-15T23:04:24.632Z,40.13
2022-12-15T23:06:51.703Z,36.42
2022-12-15T23:09:18.426Z,38.58
2022-12-15T23:11:48.446Z,35.78
2022-12-15T23:14:16.993Z,39.53
2022-12-15T23:16:45.479Z,38.22
2022-12-15T23:19:24.087Z,36.33
2022-12-15T23:21:51.722Z,38.30
2022-12-15T23:24:18.213Z,34.40
2022-12-15T23:26:44.862Z,35.08
2022-12-15T23:29:11.336Z,37.47
2022-12-15T23:31:37.846Z,35.55
2022-12-15T23:34:05.203Z,36.25
2022-12-15T23:36:31.661Z,41.20
2022-12-15T23:38:58.345Z,32.45
2022-12-15T23:41:25.135Z,33.83
2022-12-15T23:43:51.558Z,35.17
2022-12-15T23:46:18.888Z,33.45
2022-12-15T23:48:45.597Z,34.47
2022-12-15T23:51:14.801Z,34.20
2022-12-15T23:53:42.279Z,34.25
2022-12-15T23:56:12.263Z,37.45
2022-12-15T23:58:40.622Z,37.72
